createdAt,value
2023-12-30T00:01:35.754Z,100856.88
2023-12-30T00:04:02.497Z,100847.00
2023-12-30T00:06:29.060Z,100853.81
2023-12-30T00:08:55.486Z,100858.34
2023-12-30T00:11:22.091Z,100861.03
2023-12-30T00:13:48.583Z,100857.34
2023-12-30T00:16:15.210Z,100870.75
2023-12-30T00:18:41.869Z,100865.78
2023-12-30T00:21:08.368Z,100864.94
2023-12-30T00:23:41.051Z,100873.59
2023-12-30T00:26:25.876Z,100885.13
2023-12-30T00:29:13.325Z,100872.31
2023-12-30T00:31:39.862Z,100878.50
2023-12-30T00:34:06.647Z,100884.28
2023-12-30T00:36:33.169Z,100873.47
2023-12-30T00:38:59.685Z,100880.72
2023-12-30T00:41:27.768Z,100891.44
2023-12-30T00:43:54.368Z,100880.09
2023-12-30T00:46:21.153Z,100884.63
2023-12-30T00:48:56.543Z,100884.63
2023-12-30T00:51:25.862Z,100880.28
2023-12-30T00:53:52.455Z,100886.47
2023-12-30T00:56:19.498Z,100891.22
2023-12-30T00:58:46.109Z,100891.84
2023-12-30T01:01:13.497Z,100885.84
2023-12-30T01:03:41.436Z,100894.09
2023-12-30T01:06:08.217Z,100909.38
2023-12-30T01:08:34.814Z,100903.19
2023-12-30T01:11:01.338Z,100913.09
2023-12-30T01:13:27.947Z,100918.47
2023-12-30T01:15:54.507Z,100917.38
2023-12-30T01:18:21.305Z,100913.03
2023-12-30T01:20:47.887Z,100914.91
2023-12-30T01:23:15.137Z,100912.22
2023-12-30T01:25:43.199Z,100916.13
2023-12-30T01:28:10.008Z,100910.94
2023-12-30T01:30:39.613Z,100913.03
2023-12-30T01:33:07.037Z,100928.72
2023-12-30T01:35:34.056Z,100910.94
2023-12-30T01:38:03.210Z,100925.59
2023-12-30T01:40:31.581Z,100925.00
2023-12-30T01:42:58.334Z,100921.28
2023-12-30T01:45:25.067Z,100934.09
2023-12-30T01:47:51.984Z,100933.66
2023-12-30T01:50:19.035Z,100944.41
2023-12-30T01:52:48.208Z,100940.69
2023-12-30T01:55:17.078Z,100947.50
2023-12-30T01:57:46.824Z,100952.88
2023-12-30T02:00:21.469Z,100948.53
2023-12-30T02:02:50.371Z,100958.88
2023-12-30T02:05:17.573Z,100955.56
2023-12-30T02:07:48.601Z,100965.03
2023-12-30T02:10:15.479Z,100966.06
2023-12-30T02:12:42.161Z,100959.69
2023-12-30T02:15:16.084Z,100960.69
2023-12-30T02:17:42.804Z,100965.03
2023-12-30T02:20:10.212Z,100965.03
2023-12-30T02:22:41.796Z,100971.25
2023-12-30T02:25:08.655Z,100968.94
2023-12-30T02:27:35.117Z,100976.19
2023-12-30T02:30:01.591Z,100976.59
2023-12-30T02:32:28.150Z,100980.53
2023-12-30T02:34:54.727Z,100980.91
2023-12-30T02:37:21.338Z,100979.81
2023-12-30T02:39:47.939Z,100988.06
2023-12-30T02:42:14.435Z,100987.44
2023-12-30T02:44:40.947Z,101001.25
2023-12-30T02:47:07.524Z,100993.75
2023-12-30T02:49:35.087Z,101006.53
2023-12-30T02:52:02.198Z,101004.88
2023-12-30T02:54:29.456Z,101004.88
2023-12-30T02:56:57.130Z,100997.84
2023-12-30T02:59:23.742Z,101002.38
2023-12-30T03:01:50.426Z,101006.09
2023-12-30T03:04:17.087Z,101003.59
2023-12-30T03:06:43.682Z,101002.78
2023-12-30T03:09:10.750Z,101010.00
2023-12-30T03:11:37.522Z,101011.22
2023-12-30T03:14:04.078Z,101011.59
2023-12-30T03:16:30.835Z,101001.22
2023-12-30T03:18:57.559Z,100999.00
2023-12-30T03:21:24.159Z,100999.19
2023-12-30T03:23:50.714Z,101000.38
2023-12-30T03:26:17.364Z,101010.28
2023-12-30T03:28:46.690Z,101021.84
2023-12-30T03:31:27.690Z,101025.75
2023-12-30T03:33:55.485Z,101017.91
2023-12-30T03:36:23.207Z,101019.50
2023-12-30T03:38:50.891Z,101028.19
2023-12-30T03:41:18.228Z,101023.19
2023-12-30T03:43:46.111Z,101023.19
2023-12-30T03:46:12.674Z,101019.88
2023-12-30T03:48:39.372Z,101020.22
2023-12-30T03:51:06.930Z,101023.75
2023-12-30T03:53:34.392Z,101014.53
2023-12-30T03:56:01.295Z,101016.38
2023-12-30T03:58:27.870Z,101015.53
2023-12-30T04:00:54.531Z,101021.53
2023-12-30T04:03:21.142Z,101015.34
2023-12-30T04:05:47.693Z,101017.19
2023-12-30T04:08:14.169Z,101018.47
2023-12-30T04:10:41.060Z,101007.56
2023-12-30T04:13:07.751Z,101018.72
2023-12-30T04:15:34.242Z,101017.69
2023-12-30T04:18:00.831Z,101017.69
2023-12-30T04:20:27.427Z,101018.34
2023-12-30T04:22:55.913Z,101017.97
2023-12-30T04:25:22.475Z,101023.78
2023-12-30T04:27:49.130Z,101016.28
2023-12-30T04:30:15.887Z,101026.66
2023-12-30T04:32:42.498Z,101021.94
2023-12-30T04:35:09.198Z,101021.75
2023-12-30T04:37:35.807Z,101023.00
2023-12-30T04:40:02.399Z,101025.50
2023-12-30T04:42:28.976Z,101030.47
2023-12-30T04:44:55.528Z,101027.63
2023-12-30T04:47:22.128Z,101029.28
2023-12-30T04:49:48.830Z,101034.09
2023-12-30T04:52:15.376Z,101040.47
2023-12-30T04:54:43.801Z,101039.84
2023-12-30T04:57:10.661Z,101038.19
2023-12-30T04:59:37.146Z,101036.13
2023-12-30T05:02:04.445Z,101042.53
2023-12-30T05:04:31.080Z,101043.53
2023-12-30T05:06:57.707Z,101040.88
2023-12-30T05:09:24.246Z,101038.81
2023-12-30T05:11:51.605Z,101052.03
2023-12-30T05:14:19.752Z,101046.28
2023-12-30T05:16:46.868Z,101049.16
2023-12-30T05:19:14.241Z,101052.09
2023-12-30T05:21:42.790Z,101060.97
2023-12-30T05:24:10.027Z,101058.28
2023-12-30T05:26:37.014Z,101057.06
2023-12-30T05:29:03.529Z,101059.13
2023-12-30T05:31:30.135Z,101069.03
2023-12-30T05:33:56.702Z,101076.44
2023-12-30T05:36:23.281Z,101080.16
2023-12-30T05:38:49.824Z,101077.66
2023-12-30T05:41:16.408Z,101096.19
2023-12-30T05:43:43.003Z,101089.16
2023-12-30T05:46:17.002Z,101091.03
2023-12-30T05:48:44.625Z,101084.81
2023-12-30T05:51:12.384Z,101091.84
2023-12-30T05:53:40.994Z,101088.16
2023-12-30T05:56:08.119Z,101089.16
2023-12-30T05:58:35.984Z,101097.78
2023-12-30T06:01:03.320Z,101095.28
2023-12-30T06:03:30.347Z,101091.75
2023-12-30T06:05:56.952Z,101094.63
2023-12-30T06:08:23.807Z,101102.69
2023-12-30T06:10:52.644Z,101104.75
2023-12-30T06:13:19.216Z,101115.47
2023-12-30T06:15:50.890Z,101104.09
2023-12-30T06:18:18.445Z,101103.47
2023-12-30T06:20:46.925Z,101104.66
2023-12-30T06:23:14.538Z,101104.66
2023-12-30T06:25:41.291Z,101111.22
2023-12-30T06:28:08.036Z,101110.38
2023-12-30T06:30:34.916Z,101114.72
2023-12-30T06:33:07.571Z,101111.69
2023-12-30T06:35:37.880Z,101114.56
2023-12-30T06:38:04.356Z,101125.66
2023-12-30T06:40:30.844Z,101117.41
2023-12-30T06:42:57.378Z,101120.78
2023-12-30T06:45:23.936Z,101127.22
2023-12-30T06:47:50.542Z,101123.72
2023-12-30T06:50:19.609Z,101120.19
2023-12-30T06:52:48.196Z,101122.88
2023-12-30T06:55:21.241Z,101122.88
2023-12-30T06:57:53.172Z,101127.59
2023-12-30T07:00:20.529Z,101132.34
2023-12-30T07:02:47.124Z,101131.66
2023-12-30T07:05:13.719Z,101136.88
2023-12-30T07:07:40.387Z,101137.31
2023-12-30T07:10:07.676Z,101139.38
2023-12-30T07:12:34.452Z,101135.03
2023-12-30T07:15:01.095Z,101143.06
2023-12-30T07:17:28.000Z,101144.09
2023-12-30T07:19:54.715Z,101140.38
2023-12-30T07:22:21.356Z,101131.22
2023-12-30T07:24:48.017Z,101139.44
2023-12-30T07:27:15.984Z,101143.34
2023-12-30T07:29:42.640Z,101138.19
2023-12-30T07:32:09.225Z,101147.06
2023-12-30T07:34:35.790Z,101145.38
2023-12-30T07:37:03.089Z,101148.91
2023-12-30T07:39:29.685Z,101161.94
2023-12-30T07:41:56.218Z,101165.91
2023-12-30T07:44:22.773Z,101172.94
2023-12-30T07:46:49.241Z,101171.75
2023-12-30T07:49:18.290Z,101168.59
2023-12-30T07:51:45.116Z,101175.63
2023-12-30T07:54:11.761Z,101169.78
2023-12-30T07:56:38.270Z,101177.84
2023-12-30T07:59:04.724Z,101172.66
2023-12-30T08:01:31.351Z,101187.56
2023-12-30T08:03:58.082Z,101186.72
2023-12-30T08:06:24.771Z,101191.72
2023-12-30T08:08:51.196Z,101176.94
2023-12-30T08:11:17.749Z,101191.00
2023-12-30T08:13:44.273Z,101193.88
2023-12-30T08:16:10.893Z,101195.53
2023-12-30T08:18:37.476Z,101196.72
2023-12-30T08:21:04.018Z,101186.63
2023-12-30T08:23:30.488Z,101194.31
2023-12-30T08:25:56.993Z,101196.81
2023-12-30T08:28:23.530Z,101198.28
2023-12-30T08:30:51.496Z,101210.50
2023-12-30T08:33:18.198Z,101201.91
2023-12-30T08:35:45.263Z,101207.72
2023-12-30T08:38:12.353Z,101206.94
2023-12-30T08:40:38.884Z,101212.63
2023-12-30T08:43:06.230Z,101217.41
2023-12-30T08:45:33.013Z,101223.03
2023-12-30T08:47:59.574Z,101218.78
2023-12-30T08:50:26.075Z,101218.47
2023-12-30T08:52:52.574Z,101220.28
2023-12-30T08:55:19.179Z,101224.53
2023-12-30T08:57:45.746Z,101242.31
2023-12-30T09:00:12.758Z,101245.63
2023-12-30T09:02:39.468Z,101239.91
2023-12-30T09:05:06.546Z,101232.09
2023-12-30T09:07:33.438Z,101233.75
2023-12-30T09:10:00.382Z,101238.38
2023-12-30T09:12:26.844Z,101243.16
2023-12-30T09:14:53.308Z,101227.28
2023-12-30T09:17:19.929Z,101232.09
2023-12-30T09:19:46.644Z,101232.53
2023-12-30T09:22:13.611Z,101237.34
2023-12-30T09:24:40.325Z,101243.97
2023-12-30T09:27:08.903Z,101243.97
2023-12-30T09:29:35.976Z,101241.97
2023-12-30T09:32:02.576Z,101232.88
2023-12-30T09:34:38.144Z,101247.38
2023-12-30T09:37:08.141Z,101242.44
2023-12-30T09:39:34.692Z,101242.50
2023-12-30T09:42:01.372Z,101251.66
2023-12-30T09:44:28.516Z,101241.97
2023-12-30T09:46:55.764Z,101247.97
2023-12-30T09:49:22.766Z,101250.50
2023-12-30T09:51:49.447Z,101257.53
2023-12-30T09:54:16.396Z,101254.84
2023-12-30T09:56:43.324Z,101254.84
2023-12-30T09:59:10.395Z,101250.09
2023-12-30T10:01:39.956Z,101248.03
2023-12-30T10:04:07.410Z,101244.31
2023-12-30T10:06:34.927Z,101231.50
2023-12-30T10:09:01.899Z,101231.09
2023-12-30T10:11:28.379Z,101242.50
2023-12-30T10:13:55.518Z,101252.91
2023-12-30T10:16:22.308Z,101244.81
2023-12-30T10:18:49.013Z,101254.56
2023-12-30T10:21:17.761Z,101255.19
2023-12-30T10:23:44.288Z,101253.13
2023-12-30T10:26:11.016Z,101254.59
2023-12-30T10:28:38.449Z,101273.84
2023-12-30T10:31:07.160Z,101265.59
2023-12-30T10:33:35.787Z,101255.66
2023-12-30T10:36:06.025Z,101262.72
2023-12-30T10:38:33.477Z,101261.84
2023-12-30T10:41:00.008Z,101255.66
2023-12-30T10:43:26.849Z,101261.84
2023-12-30T10:45:59.498Z,101256.47
2023-12-30T10:48:34.580Z,101254.44
2023-12-30T10:51:03.164Z,101249.91
2023-12-30T10:53:35.182Z,101235.41
2023-12-30T10:56:02.952Z,101237.91
2023-12-30T10:58:35.234Z,101228.38
2023-12-30T11:01:04.516Z,101229.03
2023-12-30T11:03:33.189Z,101228.81
2023-12-30T11:06:25.492Z,101224.25
2023-12-30T11:08:53.326Z,101222.03
2023-12-30T11:11:20.531Z,101217.28
2023-12-30T11:13:47.574Z,101214.38
2023-12-30T11:16:16.370Z,101211.28
2023-12-30T11:18:51.254Z,101218.13
2023-12-30T11:21:38.393Z,101210.25
2023-12-30T11:24:07.388Z,101207.81
2023-12-30T11:26:37.304Z,101220.28
2023-12-30T11:29:04.676Z,101218.84
2023-12-30T11:31:32.653Z,101217.41
2023-12-30T11:34:03.456Z,101216.81
2023-12-30T11:36:30.169Z,101217.03
2023-12-30T11:38:59.338Z,101210.41
2023-12-30T11:41:30.783Z,101212.91
2023-12-30T11:43:59.630Z,101212.72
2023-12-30T11:46:28.015Z,101205.44
2023-12-30T11:48:54.705Z,101211.25
2023-12-30T11:51:32.919Z,101206.28
2023-12-30T11:54:04.439Z,101205.88
2023-12-30T11:56:31.453Z,101191.38
2023-12-30T11:58:58.449Z,101194.72
2023-12-30T12:01:25.077Z,101190.56
2023-12-30T12:03:52.804Z,101187.66
2023-12-30T12:06:20.360Z,101187.03
2023-12-30T12:08:46.861Z,101185.63
2023-12-30T12:11:13.778Z,101181.88
2023-12-30T12:13:41.165Z,101177.75
2023-12-30T12:16:08.393Z,101174.63
2023-12-30T12:18:35.991Z,101176.47
2023-12-30T12:21:05.072Z,101170.91
2023-12-30T12:23:32.301Z,101177.97
2023-12-30T12:25:59.130Z,101176.09
2023-12-30T12:28:25.685Z,101168.63
2023-12-30T12:30:52.352Z,101164.91
2023-12-30T12:33:19.662Z,101170.28
2023-12-30T12:35:46.629Z,101167.59
2023-12-30T12:38:13.164Z,101172.78
2023-12-30T12:40:39.706Z,101166.56
2023-12-30T12:43:06.769Z,101160.75
2023-12-30T12:45:33.393Z,101154.31
2023-12-30T12:48:00.598Z,101157.63
2023-12-30T12:50:27.674Z,101147.44
2023-12-30T12:52:54.248Z,101149.09
2023-12-30T12:55:20.731Z,101154.31
2023-12-30T12:57:47.235Z,101137.94
2023-12-30T13:00:14.282Z,101132.31
2023-12-30T13:02:41.036Z,101125.47
2023-12-30T13:05:10.735Z,101119.84
2023-12-30T13:07:39.679Z,101110.50
2023-12-30T13:10:27.407Z,101107.63
2023-12-30T13:12:54.636Z,101103.91
2023-12-30T13:15:22.754Z,101109.94
2023-12-30T13:17:49.497Z,101094.75
2023-12-30T13:20:17.843Z,101089.19
2023-12-30T13:22:45.272Z,101091.88
2023-12-30T13:25:12.031Z,101090.84
2023-12-30T13:27:38.639Z,101084.41
2023-12-30T13:30:06.672Z,101091.03
2023-12-30T13:32:33.541Z,101078.34
2023-12-30T13:35:01.014Z,101065.28
2023-12-30T13:37:27.830Z,101066.06
2023-12-30T13:39:58.580Z,101065.63
2023-12-30T13:42:25.250Z,101065.63
2023-12-30T13:44:53.105Z,101063.13
2023-12-30T13:47:37.966Z,101057.28
2023-12-30T13:50:21.146Z,101050.63
2023-12-30T13:52:51.356Z,101055.63
2023-12-30T13:55:21.272Z,101049.56
2023-12-30T13:57:53.571Z,101043.94
2023-12-30T14:00:20.340Z,101046.66
2023-12-30T14:02:52.122Z,101041.47
2023-12-30T14:05:34.142Z,101043.56
2023-12-30T14:08:19.886Z,101041.06
2023-12-30T14:10:49.832Z,101031.94
2023-12-30T14:13:17.726Z,101036.50
2023-12-30T14:15:47.911Z,101029.88
2023-12-30T14:18:18.361Z,101028.44
2023-12-30T14:20:46.416Z,101020.78
2023-12-30T14:23:13.370Z,101017.47
2023-12-30T14:25:40.088Z,101013.31
2023-12-30T14:28:06.912Z,101018.94
2023-12-30T14:30:34.287Z,101010.44
2023-12-30T14:33:01.469Z,101010.88
2023-12-30T14:35:28.513Z,101015.66
2023-12-30T14:37:55.390Z,101016.69
2023-12-30T14:40:21.934Z,101004.25
2023-12-30T14:42:49.265Z,101017.75
2023-12-30T14:45:15.847Z,101018.78
2023-12-30T14:47:43.266Z,101014.63
2023-12-30T14:50:09.858Z,101012.53
2023-12-30T14:52:39.466Z,101024.59
2023-12-30T14:55:10.450Z,101014.00
2023-12-30T14:57:41.599Z,101015.88
2023-12-30T15:00:15.558Z,101023.38
2023-12-30T15:02:43.037Z,101012.19
2023-12-30T15:05:15.206Z,101009.69
2023-12-30T15:07:43.505Z,101003.69
2023-12-30T15:10:12.011Z,101014.69
2023-12-30T15:12:39.267Z,101006.78
2023-12-30T15:15:06.391Z,100998.69
2023-12-30T15:17:33.019Z,101000.56
2023-12-30T15:19:59.843Z,101000.56
2023-12-30T15:22:29.356Z,100994.34
2023-12-30T15:24:55.995Z,100996.19
2023-12-30T15:27:22.540Z,100989.13
2023-12-30T15:29:48.998Z,100992.66
2023-12-30T15:32:16.165Z,100986.44
2023-12-30T15:34:42.886Z,100978.56
2023-12-30T15:37:09.680Z,100978.56
2023-12-30T15:39:36.184Z,100977.72
2023-12-30T15:42:03.101Z,100974.81
2023-12-30T15:44:33.565Z,100974.81
2023-12-30T15:47:00.665Z,100972.13
2023-12-30T15:49:27.383Z,100976.06
2023-12-30T15:51:54.256Z,100967.75
2023-12-30T15:54:20.905Z,100971.28
2023-12-30T15:56:48.502Z,100966.72
2023-12-30T15:59:15.394Z,100961.31
2023-12-30T16:01:41.980Z,100965.69
2023-12-30T16:04:10.020Z,100962.97
2023-12-30T16:06:38.101Z,100957.59
2023-12-30T16:09:04.938Z,100960.28
2023-12-30T16:11:31.469Z,100954.88
2023-12-30T16:13:58.226Z,100952.00
2023-12-30T16:16:24.963Z,100957.41
2023-12-30T16:18:51.685Z,100949.09
2023-12-30T16:21:18.402Z,100953.25
2023-12-30T16:23:45.050Z,100945.78
2023-12-30T16:26:11.748Z,100945.34
2023-12-30T16:28:38.334Z,100950.75
2023-12-30T16:31:04.914Z,100947.00
2023-12-30T16:33:32.261Z,100941.38
2023-12-30T16:35:58.998Z,100933.28
2023-12-30T16:38:25.499Z,100934.13
2023-12-30T16:40:52.048Z,100936.81
2023-12-30T16:43:18.609Z,100936.59
2023-12-30T16:45:46.882Z,100946.56
2023-12-30T16:48:14.028Z,100953.38
2023-12-30T16:50:40.570Z,100942.38
2023-12-30T16:53:08.591Z,100949.47
2023-12-30T16:55:35.050Z,100952.16
2023-12-30T16:58:02.581Z,100947.59
2023-12-30T17:00:29.383Z,100935.75
2023-12-30T17:02:55.897Z,100946.53
2023-12-30T17:05:22.494Z,100942.81
2023-12-30T17:07:48.926Z,100940.09
2023-12-30T17:10:15.530Z,100940.94
2023-12-30T17:12:42.097Z,100939.06
2023-12-30T17:15:09.519Z,100928.25
2023-12-30T17:17:36.112Z,100926.16
2023-12-30T17:20:02.886Z,100939.66
2023-12-30T17:22:29.690Z,100946.09
2023-12-30T17:24:56.175Z,100937.56
2023-12-30T17:27:22.656Z,100934.66
2023-12-30T17:29:49.105Z,100934.00
2023-12-30T17:32:17.937Z,100931.94
2023-12-30T17:34:46.277Z,100935.66
2023-12-30T17:37:13.262Z,100931.13
2023-12-30T17:39:41.040Z,100936.91
2023-12-30T17:42:07.456Z,100939.38
2023-12-30T17:44:33.930Z,100928.59
2023-12-30T17:47:00.517Z,100931.06
2023-12-30T17:49:27.142Z,100925.06
2023-12-30T17:51:53.679Z,100917.78
2023-12-30T17:54:20.155Z,100919.88
2023-12-30T17:56:46.645Z,100915.31
2023-12-30T17:59:13.257Z,100919.66
2023-12-30T18:01:40.013Z,100916.97
2023-12-30T18:04:06.543Z,100915.75
2023-12-30T18:06:34.390Z,100901.63
2023-12-30T18:09:01.303Z,100898.75
2023-12-30T18:11:27.890Z,100897.53
2023-12-30T18:13:54.379Z,100892.56
2023-12-30T18:16:22.155Z,100889.28
2023-12-30T18:18:48.746Z,100875.56
2023-12-30T18:21:15.237Z,100864.13
2023-12-30T18:23:41.667Z,100862.69
2023-12-30T18:26:14.354Z,100855.25
2023-12-30T18:28:40.962Z,100856.31
2023-12-30T18:31:07.538Z,100861.94
2023-12-30T18:33:34.458Z,100854.28
2023-12-30T18:36:01.045Z,100840.38
2023-12-30T18:38:28.164Z,100842.44
2023-12-30T18:40:54.706Z,100837.25
2023-12-30T18:43:21.325Z,100837.47
2023-12-30T18:45:47.977Z,100827.50
2023-12-30T18:48:15.681Z,100821.50
2023-12-30T18:50:42.645Z,100817.16
2023-12-30T18:53:09.169Z,100815.50
2023-12-30T18:55:35.917Z,100813.03
2023-12-30T18:58:02.507Z,100813.03
2023-12-30T19:00:29.055Z,100811.16
2023-12-30T19:02:55.778Z,100805.31
2023-12-30T19:05:22.902Z,100804.88
2023-12-30T19:07:50.087Z,100794.72
2023-12-30T19:10:16.783Z,100790.34
2023-12-30T19:12:44.013Z,100791.41
2023-12-30T19:15:10.521Z,100787.28
2023-12-30T19:17:37.073Z,100774.00
2023-12-30T19:20:04.940Z,100776.09
2023-12-30T19:22:31.454Z,100773.84
2023-12-30T19:24:59.562Z,100760.75
2023-12-30T19:27:26.013Z,100760.38
2023-12-30T19:29:52.490Z,100764.94
2023-12-30T19:32:18.946Z,100766.22
2023-12-30T19:34:45.433Z,100760.81
2023-12-30T19:37:12.130Z,100765.84
2023-12-30T19:39:39.308Z,100757.34
2023-12-30T19:42:05.833Z,100754.22
2023-12-30T19:44:32.412Z,100756.69
2023-12-30T19:46:59.662Z,100752.13
2023-12-30T19:49:26.248Z,100740.06
2023-12-30T19:51:52.751Z,100747.56
2023-12-30T19:54:21.283Z,100736.78
2023-12-30T19:56:47.768Z,100738.44
2023-12-30T19:59:14.262Z,100733.63
2023-12-30T20:01:41.989Z,100735.91
2023-12-30T20:04:08.675Z,100745.03
2023-12-30T20:06:36.254Z,100745.03
2023-12-30T20:09:02.798Z,100740.25
2023-12-30T20:11:29.339Z,100740.25
2023-12-30T20:13:55.957Z,100735.66
2023-12-30T20:16:22.471Z,100739.19
2023-12-30T20:18:48.956Z,100722.41
2023-12-30T20:21:15.483Z,100727.56
2023-12-30T20:23:41.989Z,100713.91
2023-12-30T20:26:08.843Z,100713.91
2023-12-30T20:28:35.851Z,100711.41
2023-12-30T20:31:03.914Z,100715.56
2023-12-30T20:33:30.486Z,100711.00
2023-12-30T20:35:57.020Z,100701.03
2023-12-30T20:38:23.484Z,100699.38
2023-12-30T20:40:50.054Z,100705.38
2023-12-30T20:43:16.662Z,100701.03
2023-12-30T20:45:48.251Z,100689.41
2023-12-30T20:50:43.377Z,100675.09
2023-12-30T20:53:11.767Z,100670.75
2023-12-30T20:55:38.483Z,100667.44
2023-12-30T20:58:05.063Z,100662.25
2023-12-30T21:00:31.548Z,100655.66
2023-12-30T21:02:57.976Z,100650.50
2023-12-30T21:05:24.519Z,100655.88
2023-12-30T21:07:50.999Z,100666.06
2023-12-30T21:10:17.658Z,100662.53
2023-12-30T21:12:44.205Z,100653.63
2023-12-30T21:15:10.996Z,100649.28
2023-12-30T21:17:38.786Z,100636.03
2023-12-30T21:20:06.327Z,100642.25
2023-12-30T21:22:32.808Z,100627.31
2023-12-30T21:25:01.209Z,100621.91
2023-12-30T21:27:28.066Z,100624.44
2023-12-30T21:29:54.592Z,100616.94
2023-12-30T21:32:21.064Z,100613.78
2023-12-30T21:34:47.653Z,100618.75
2023-12-30T21:37:14.244Z,100617.25
2023-12-30T21:39:41.116Z,100615.16
2023-12-30T21:42:08.138Z,100611.81
2023-12-30T21:44:34.753Z,100611.34
2023-12-30T21:47:01.271Z,100603.03
2023-12-30T21:49:27.834Z,100592.63
2023-12-30T21:51:54.323Z,100588.69
2023-12-30T21:54:20.965Z,100588.88
2023-12-30T21:56:47.574Z,100581.38
2023-12-30T21:59:14.385Z,100580.91
2023-12-30T22:01:41.048Z,100567.44
2023-12-30T22:04:07.875Z,100563.69
2023-12-30T22:06:34.389Z,100556.41
2023-12-30T22:09:00.967Z,100555.34
2023-12-30T22:11:28.459Z,100548.91
2023-12-30T22:13:55.197Z,100550.34
2023-12-30T22:16:21.807Z,100547.03
2023-12-30T22:18:49.499Z,100544.94
2023-12-30T22:21:19.548Z,100545.56
2023-12-30T22:23:47.898Z,100537.47
2023-12-30T22:26:17.752Z,100533.25
2023-12-30T22:28:44.261Z,100542.19
2023-12-30T22:31:10.719Z,100538.44
2023-12-30T22:33:37.629Z,100533.03
2023-12-30T22:36:04.583Z,100524.13
2023-12-30T22:38:31.047Z,100518.13
2023-12-30T22:41:00.399Z,100520.59
2023-12-30T22:43:28.306Z,100520.81
2023-12-30T22:45:54.790Z,100531.03
2023-12-30T22:48:22.985Z,100523.53
2023-12-30T22:50:52.944Z,100525.41
2023-12-30T22:53:19.797Z,100529.38
2023-12-30T22:55:46.326Z,100518.41
2023-12-30T22:58:12.934Z,100512.88
2023-12-30T23:00:40.581Z,100511.22
2023-12-30T23:03:07.701Z,100509.81
2023-12-30T23:05:34.413Z,100509.22
2023-12-30T23:08:01.119Z,100504.44
2023-12-30T23:10:28.506Z,100493.53
2023-12-30T23:12:57.345Z,100490.22
2023-12-30T23:15:23.873Z,100488.59
2023-12-30T23:17:50.418Z,100484.47
2023-12-30T23:20:16.941Z,100476.59
2023-12-30T23:22:43.556Z,100475.97
2023-12-30T23:25:10.127Z,100477.63
2023-12-30T23:27:36.623Z,100477.47
2023-12-30T23:30:04.959Z,100474.19
2023-12-30T23:32:33.689Z,100463.84
2023-12-30T23:35:01.039Z,100459.53
2023-12-30T23:37:27.654Z,100454.13
2023-12-30T23:39:54.107Z,100448.97
2023-12-30T23:42:20.691Z,100440.28
2023-12-30T23:44:47.146Z,100426.19
2023-12-30T23:47:13.600Z,100427.00
2023-12-30T23:49:40.116Z,100426.19
2023-12-30T23:52:06.861Z,100410.47
2023-12-30T23:54:33.337Z,100400.50
2023-12-30T23:56:59.788Z,100398.25
2023-12-30T23:59:26.252Z,100383.13
